RYR58JL EGSS-LFMP
Flight info
| Callsign | RYR58JL |
|---|---|
| Flight time | 1h 47m |
| Altitude | 37000 |
| Route | NUGBO M183 SILVA Q41 COWLY DCT GWC UN859 SOPIL DCT BALAN DCT EVPOK DCT NARAK DCT GAI G36 ORBIL |
| Aircraft | B738/M-SDE2E3FGHIRWXY/LB1 |
Departure
| Time | 2026-05-04 14:15 |
|---|---|
| Airport | London Stansted Airport (EGSS) |
Arrival
| Time | 2026-05-04 16:02 |
|---|---|
| Airport | Perpignan-Rivesaltes (Llabanère) Airport (LFMP) |
| Time | Latitude | Longitude | Altitude | Speed | Heading |
|---|---|---|---|---|---|
| 2026-05-04 13:41 | 51.89165 | 0.25743 | 358 ft | 0 kts | 223° |
| 2026-05-04 14:06 | 51.89180 | 0.25767 | 351 ft | 4 kts | 235° |
| 2026-05-04 14:06 | 51.89191 | 0.25805 | 359 ft | 4 kts | 268° |
| 2026-05-04 14:06 | 51.89186 | 0.25837 | 351 ft | 1 kts | 313° |
| 2026-05-04 14:09 | 51.89190 | 0.25831 | 355 ft | 5 kts | 313° |
| 2026-05-04 14:09 | 51.89234 | 0.25753 | 351 ft | 14 kts | 313° |
| 2026-05-04 14:10 | 51.89306 | 0.25473 | 351 ft | 16 kts | 223° |
| 2026-05-04 14:10 | 51.89225 | 0.25351 | 351 ft | 18 kts | 223° |
| 2026-05-04 14:10 | 51.89115 | 0.25185 | 351 ft | 25 kts | 223° |
| 2026-05-04 14:10 | 51.88983 | 0.24988 | 354 ft | 25 kts | 223° |
| 2026-05-04 14:11 | 51.88860 | 0.24802 | 351 ft | 23 kts | 223° |
| 2026-05-04 14:11 | 51.88599 | 0.24406 | 349 ft | 29 kts | 223° |
| 2026-05-04 14:11 | 51.88456 | 0.24193 | 353 ft | 27 kts | 223° |
| 2026-05-04 14:12 | 51.88322 | 0.23992 | 348 ft | 25 kts | 223° |
| 2026-05-04 14:12 | 51.88198 | 0.23805 | 347 ft | 24 kts | 222° |
| 2026-05-04 14:12 | 51.87962 | 0.23455 | 340 ft | 22 kts | 223° |
| 2026-05-04 14:13 | 51.87849 | 0.23286 | 339 ft | 22 kts | 223° |
| 2026-05-04 14:13 | 51.87743 | 0.23117 | 338 ft | 21 kts | 241° |
| 2026-05-04 14:13 | 51.87792 | 0.22932 | 339 ft | 21 kts | 314° |
| 2026-05-04 14:13 | 51.87892 | 0.22754 | 332 ft | 22 kts | 312° |
| 2026-05-04 14:14 | 51.88010 | 0.22743 | 329 ft | 20 kts | 42° |
| 2026-05-04 14:14 | 51.88770 | 0.23879 | 337 ft | 139 kts | 42° |
| 2026-05-04 14:14 | 51.89578 | 0.25085 | 659 ft | 163 kts | 41° |
| 2026-05-04 14:15 | 51.91229 | 0.27653 | 2040 ft | 182 kts | 41° |
| 2026-05-04 14:15 | 51.93628 | 0.29911 | 2814 ft | 219 kts | 7° |
| 2026-05-04 14:16 | 51.96577 | 0.27837 | 3601 ft | 259 kts | 303° |
| 2026-05-04 14:16 | 51.97187 | 0.25084 | 4415 ft | 263 kts | 282° |
| 2026-05-04 14:17 | 51.97718 | 0.19121 | 6056 ft | 271 kts | 277° |
| 2026-05-04 14:17 | 51.97973 | 0.16074 | 6881 ft | 274 kts | 278° |
| 2026-05-04 14:17 | 51.98582 | 0.09927 | 8468 ft | 280 kts | 279° |
| 2026-05-04 14:18 | 51.98901 | 0.06803 | 9219 ft | 283 kts | 275° |
| 2026-05-04 14:18 | 51.98287 | 0.00457 | 10560 ft | 295 kts | 257° |
| 2026-05-04 14:19 | 51.97355 | -0.06570 | 11063 ft | 336 kts | 258° |
| 2026-05-04 14:19 | 51.96870 | -0.10315 | 11703 ft | 342 kts | 257° |
| 2026-05-04 14:19 | 51.96383 | -0.14053 | 12482 ft | 343 kts | 257° |
| 2026-05-04 14:19 | 51.95883 | -0.17893 | 13289 ft | 345 kts | 257° |
| 2026-05-04 14:20 | 51.95390 | -0.21663 | 14017 ft | 348 kts | 257° |
| 2026-05-04 14:20 | 51.94883 | -0.25526 | 14739 ft | 352 kts | 257° |
| 2026-05-04 14:20 | 51.94371 | -0.29426 | 15481 ft | 355 kts | 257° |
| 2026-05-04 14:21 | 51.93501 | -0.36033 | 16708 ft | 360 kts | 256° |
| 2026-05-04 14:21 | 51.92795 | -0.41368 | 17642 ft | 365 kts | 256° |
| 2026-05-04 14:21 | 51.92440 | -0.44039 | 18094 ft | 367 kts | 256° |
| 2026-05-04 14:21 | 51.91901 | -0.48094 | 18758 ft | 370 kts | 256° |
| 2026-05-04 14:22 | 51.91177 | -0.53522 | 19594 ft | 374 kts | 256° |
| 2026-05-04 14:22 | 51.90804 | -0.56312 | 20031 ft | 376 kts | 256° |
| 2026-05-04 14:22 | 51.90065 | -0.61826 | 20828 ft | 381 kts | 256° |
| 2026-05-04 14:22 | 51.89499 | -0.66029 | 21414 ft | 384 kts | 256° |
| 2026-05-04 14:23 | 51.88537 | -0.73151 | 22360 ft | 389 kts | 256° |
| 2026-05-04 14:23 | 51.87955 | -0.77439 | 22909 ft | 392 kts | 256° |
| 2026-05-04 14:23 | 51.87368 | -0.81765 | 23420 ft | 395 kts | 256° |
| 2026-05-04 14:24 | 51.86774 | -0.86120 | 23939 ft | 398 kts | 256° |
| 2026-05-04 14:24 | 51.86176 | -0.90493 | 24444 ft | 400 kts | 256° |
| 2026-05-04 14:24 | 51.85293 | -0.94763 | 24863 ft | 401 kts | 239° |
| 2026-05-04 14:24 | 51.83570 | -0.98282 | 25322 ft | 401 kts | 220° |
| 2026-05-04 14:25 | 51.81277 | -1.00835 | 25797 ft | 403 kts | 206° |
| 2026-05-04 14:25 | 51.75868 | -1.02980 | 26640 ft | 408 kts | 189° |
| 2026-05-04 14:25 | 51.73041 | -1.03622 | 27027 ft | 412 kts | 188° |
| 2026-05-04 14:26 | 51.70161 | -1.04300 | 27425 ft | 414 kts | 189° |
| 2026-05-04 14:26 | 51.67339 | -1.05008 | 27508 ft | 416 kts | 189° |
| 2026-05-04 14:26 | 51.64506 | -1.05727 | 27522 ft | 413 kts | 188° |
| 2026-05-04 14:26 | 51.61604 | -1.05942 | 27520 ft | 413 kts | 179° |
| 2026-05-04 14:27 | 51.58778 | -1.05446 | 27519 ft | 416 kts | 169° |
| 2026-05-04 14:27 | 51.55964 | -1.04330 | 27528 ft | 417 kts | 167° |
| 2026-05-04 14:27 | 51.53121 | -1.03128 | 27520 ft | 417 kts | 167° |
| 2026-05-04 14:27 | 51.50351 | -1.01951 | 27516 ft | 418 kts | 167° |
| 2026-05-04 14:28 | 51.47540 | -1.00768 | 27516 ft | 417 kts | 167° |
| 2026-05-04 14:28 | 51.44695 | -0.99585 | 27517 ft | 417 kts | 167° |
| 2026-05-04 14:28 | 51.41929 | -0.98445 | 27511 ft | 416 kts | 167° |
| 2026-05-04 14:28 | 51.39128 | -0.97298 | 27507 ft | 415 kts | 167° |
| 2026-05-04 14:29 | 51.33539 | -0.95022 | 27501 ft | 414 kts | 167° |
| 2026-05-04 14:29 | 51.27969 | -0.92762 | 27503 ft | 412 kts | 167° |
| 2026-05-04 14:30 | 51.25186 | -0.91634 | 27503 ft | 412 kts | 167° |
| 2026-05-04 14:30 | 51.22413 | -0.90511 | 27499 ft | 411 kts | 167° |
| 2026-05-04 14:30 | 51.16872 | -0.88275 | 27502 ft | 411 kts | 167° |
| 2026-05-04 14:31 | 51.14103 | -0.87159 | 27498 ft | 411 kts | 167° |
| 2026-05-04 14:31 | 51.08565 | -0.84927 | 27500 ft | 410 kts | 167° |
| 2026-05-04 14:32 | 51.03031 | -0.82705 | 27500 ft | 410 kts | 167° |
| 2026-05-04 14:32 | 51.00263 | -0.81596 | 27501 ft | 410 kts | 167° |
| 2026-05-04 14:32 | 50.97502 | -0.80492 | 27499 ft | 409 kts | 167° |
| 2026-05-04 14:32 | 50.94744 | -0.79388 | 27498 ft | 409 kts | 167° |
| 2026-05-04 14:33 | 50.91981 | -0.78284 | 27504 ft | 409 kts | 167° |
| 2026-05-04 14:33 | 50.89223 | -0.77184 | 27500 ft | 409 kts | 167° |
| 2026-05-04 14:33 | 50.86491 | -0.75966 | 27495 ft | 409 kts | 162° |
| 2026-05-04 14:33 | 50.83881 | -0.74140 | 27496 ft | 411 kts | 153° |
| 2026-05-04 14:34 | 50.81457 | -0.71740 | 27514 ft | 412 kts | 149° |
| 2026-05-04 14:34 | 50.79059 | -0.69259 | 27501 ft | 412 kts | 149° |
| 2026-05-04 14:34 | 50.76754 | -0.66871 | 27499 ft | 412 kts | 149° |
| 2026-05-04 14:34 | 50.74353 | -0.64394 | 27499 ft | 412 kts | 149° |
| 2026-05-04 14:35 | 50.71945 | -0.61925 | 27500 ft | 412 kts | 149° |
| 2026-05-04 14:35 | 50.69557 | -0.59490 | 27501 ft | 412 kts | 149° |
| 2026-05-04 14:35 | 50.68147 | -0.58060 | 27502 ft | 412 kts | 150° |
| 2026-05-04 14:35 | 50.65827 | -0.55726 | 27501 ft | 412 kts | 150° |
| 2026-05-04 14:36 | 50.63420 | -0.53292 | 27499 ft | 412 kts | 149° |
| 2026-05-04 14:36 | 50.61019 | -0.50860 | 27499 ft | 412 kts | 149° |
| 2026-05-04 14:36 | 50.58617 | -0.48432 | 27501 ft | 412 kts | 149° |
| 2026-05-04 14:36 | 50.56207 | -0.45999 | 27500 ft | 412 kts | 149° |
| 2026-05-04 14:37 | 50.53802 | -0.43577 | 27500 ft | 412 kts | 150° |
| 2026-05-04 14:37 | 50.51391 | -0.41152 | 27500 ft | 412 kts | 150° |
| 2026-05-04 14:37 | 50.48978 | -0.38730 | 27500 ft | 412 kts | 150° |
| 2026-05-04 14:37 | 50.46561 | -0.36306 | 27501 ft | 412 kts | 150° |
| 2026-05-04 14:38 | 50.44147 | -0.33888 | 27500 ft | 412 kts | 150° |
| 2026-05-04 14:38 | 50.41732 | -0.31473 | 27501 ft | 412 kts | 150° |
| 2026-05-04 14:38 | 50.39331 | -0.29074 | 27500 ft | 411 kts | 150° |
| 2026-05-04 14:38 | 50.36947 | -0.26696 | 27500 ft | 411 kts | 150° |
| 2026-05-04 14:39 | 50.34536 | -0.24294 | 27499 ft | 411 kts | 150° |
| 2026-05-04 14:39 | 50.32122 | -0.21891 | 27500 ft | 411 kts | 150° |
| 2026-05-04 14:39 | 50.29721 | -0.19503 | 27500 ft | 411 kts | 150° |
| 2026-05-04 14:40 | 50.24904 | -0.14724 | 27498 ft | 411 kts | 150° |
| 2026-05-04 14:40 | 50.22489 | -0.12331 | 27499 ft | 411 kts | 150° |
| 2026-05-04 14:40 | 50.20076 | -0.09942 | 27501 ft | 411 kts | 150° |
| 2026-05-04 14:40 | 50.17667 | -0.07560 | 27500 ft | 411 kts | 150° |
| 2026-05-04 14:41 | 50.15252 | -0.05176 | 27500 ft | 411 kts | 150° |
| 2026-05-04 14:41 | 50.12839 | -0.02797 | 27503 ft | 411 kts | 150° |
| 2026-05-04 14:41 | 50.07728 | 0.01019 | 27497 ft | 406 kts | 166° |
| 2026-05-04 14:42 | 50.02257 | 0.03116 | 27493 ft | 404 kts | 168° |
| 2026-05-04 14:42 | 49.99533 | 0.04151 | 27493 ft | 403 kts | 168° |
| 2026-05-04 14:42 | 49.96818 | 0.05194 | 27494 ft | 402 kts | 167° |
| 2026-05-04 14:43 | 49.94107 | 0.06246 | 27496 ft | 401 kts | 167° |
| 2026-05-04 14:43 | 49.91401 | 0.07301 | 27497 ft | 400 kts | 167° |
| 2026-05-04 14:43 | 49.88708 | 0.08353 | 27500 ft | 400 kts | 167° |
| 2026-05-04 14:43 | 49.86012 | 0.09407 | 27501 ft | 399 kts | 167° |
| 2026-05-04 14:44 | 49.83322 | 0.10457 | 27499 ft | 399 kts | 167° |
| 2026-05-04 14:44 | 49.80620 | 0.11510 | 27502 ft | 400 kts | 167° |
| 2026-05-04 14:44 | 49.77924 | 0.12561 | 27497 ft | 400 kts | 167° |
| 2026-05-04 14:44 | 49.75220 | 0.13612 | 27494 ft | 401 kts | 167° |
| 2026-05-04 14:45 | 49.72551 | 0.14650 | 27490 ft | 402 kts | 167° |
| 2026-05-04 14:45 | 49.69839 | 0.15702 | 27491 ft | 402 kts | 167° |
| 2026-05-04 14:45 | 49.67124 | 0.16760 | 27494 ft | 403 kts | 167° |
| 2026-05-04 14:45 | 49.64403 | 0.17853 | 27493 ft | 403 kts | 167° |
| 2026-05-04 14:46 | 49.61692 | 0.18957 | 27493 ft | 404 kts | 167° |
| 2026-05-04 14:46 | 49.58977 | 0.20064 | 27489 ft | 404 kts | 167° |
| 2026-05-04 14:46 | 49.56257 | 0.21171 | 27487 ft | 404 kts | 167° |
| 2026-05-04 14:46 | 49.53543 | 0.22273 | 27490 ft | 403 kts | 167° |
| 2026-05-04 14:47 | 49.50826 | 0.23372 | 27489 ft | 403 kts | 167° |
| 2026-05-04 14:47 | 49.48116 | 0.24467 | 27491 ft | 403 kts | 167° |
| 2026-05-04 14:47 | 49.45411 | 0.25558 | 27491 ft | 403 kts | 167° |
| 2026-05-04 14:47 | 49.42691 | 0.26651 | 27492 ft | 403 kts | 167° |
| 2026-05-04 14:48 | 49.39983 | 0.27737 | 27490 ft | 403 kts | 167° |
| 2026-05-04 14:48 | 49.37271 | 0.28826 | 27489 ft | 403 kts | 167° |
| 2026-05-04 14:48 | 49.34561 | 0.29915 | 27492 ft | 403 kts | 167° |
| 2026-05-04 14:48 | 49.31847 | 0.31002 | 27487 ft | 403 kts | 167° |
| 2026-05-04 14:49 | 49.29143 | 0.32099 | 27494 ft | 403 kts | 166° |
| 2026-05-04 14:49 | 49.26434 | 0.33232 | 27495 ft | 403 kts | 166° |
| 2026-05-04 14:49 | 49.23733 | 0.34375 | 27488 ft | 403 kts | 166° |
| 2026-05-04 14:49 | 49.21027 | 0.35521 | 27491 ft | 403 kts | 166° |
| 2026-05-04 14:50 | 49.18325 | 0.36663 | 27491 ft | 403 kts | 166° |
| 2026-05-04 14:50 | 49.15619 | 0.37802 | 27492 ft | 404 kts | 166° |
| 2026-05-04 14:50 | 49.12911 | 0.38939 | 27488 ft | 404 kts | 166° |
| 2026-05-04 14:50 | 49.10199 | 0.40074 | 27486 ft | 404 kts | 166° |
| 2026-05-04 14:51 | 49.07489 | 0.41208 | 27483 ft | 404 kts | 166° |
| 2026-05-04 14:51 | 49.04775 | 0.42341 | 27478 ft | 404 kts | 166° |
| 2026-05-04 14:51 | 49.02065 | 0.43471 | 27485 ft | 404 kts | 166° |
| 2026-05-04 14:51 | 48.99353 | 0.44601 | 27484 ft | 404 kts | 166° |
| 2026-05-04 14:52 | 48.96674 | 0.45716 | 27480 ft | 404 kts | 166° |
| 2026-05-04 14:52 | 48.93932 | 0.46855 | 27474 ft | 404 kts | 166° |
| 2026-05-04 14:52 | 48.91222 | 0.47981 | 27484 ft | 404 kts | 166° |
| 2026-05-04 14:52 | 48.88512 | 0.49106 | 27472 ft | 404 kts | 166° |
| 2026-05-04 14:53 | 48.85803 | 0.50228 | 27477 ft | 404 kts | 166° |
| 2026-05-04 14:53 | 48.83092 | 0.51349 | 27469 ft | 404 kts | 166° |
| 2026-05-04 14:53 | 48.80384 | 0.52467 | 27480 ft | 404 kts | 166° |
| 2026-05-04 14:53 | 48.77667 | 0.53579 | 27481 ft | 404 kts | 167° |
| 2026-05-04 14:54 | 48.74952 | 0.54649 | 27480 ft | 404 kts | 167° |
| 2026-05-04 14:54 | 48.72260 | 0.55696 | 27467 ft | 404 kts | 167° |
| 2026-05-04 14:54 | 48.69502 | 0.56767 | 27468 ft | 404 kts | 167° |
| 2026-05-04 14:54 | 48.66816 | 0.57811 | 27468 ft | 404 kts | 167° |
| 2026-05-04 14:55 | 48.64092 | 0.58871 | 27469 ft | 404 kts | 167° |
| 2026-05-04 14:55 | 48.61363 | 0.59934 | 27482 ft | 404 kts | 167° |
| 2026-05-04 14:55 | 48.58646 | 0.60992 | 27478 ft | 404 kts | 167° |
| 2026-05-04 14:55 | 48.55913 | 0.62057 | 27466 ft | 404 kts | 167° |
| 2026-05-04 14:56 | 48.53194 | 0.63113 | 27465 ft | 404 kts | 167° |
| 2026-05-04 14:56 | 48.50468 | 0.64183 | 27480 ft | 404 kts | 167° |
| 2026-05-04 14:56 | 48.47758 | 0.65280 | 27474 ft | 404 kts | 166° |
| 2026-05-04 14:56 | 48.45038 | 0.66393 | 27469 ft | 404 kts | 166° |
| 2026-05-04 14:57 | 48.42331 | 0.67500 | 27475 ft | 404 kts | 166° |
| 2026-05-04 14:57 | 48.39613 | 0.68608 | 27466 ft | 404 kts | 167° |
| 2026-05-04 14:57 | 48.36903 | 0.69710 | 27464 ft | 403 kts | 167° |
| 2026-05-04 14:57 | 48.34197 | 0.70806 | 27455 ft | 403 kts | 167° |
| 2026-05-04 14:58 | 48.31490 | 0.71901 | 27470 ft | 403 kts | 167° |
| 2026-05-04 14:58 | 48.28786 | 0.72993 | 27465 ft | 403 kts | 167° |
| 2026-05-04 14:58 | 48.26078 | 0.74085 | 27454 ft | 403 kts | 167° |
| 2026-05-04 14:58 | 48.23372 | 0.75168 | 27459 ft | 402 kts | 167° |
| 2026-05-04 14:59 | 48.20664 | 0.76237 | 27454 ft | 402 kts | 167° |
| 2026-05-04 14:59 | 48.17956 | 0.77301 | 27456 ft | 402 kts | 167° |
| 2026-05-04 14:59 | 48.12539 | 0.79427 | 27459 ft | 403 kts | 167° |
| 2026-05-04 15:00 | 48.09831 | 0.80490 | 27450 ft | 403 kts | 167° |
| 2026-05-04 15:00 | 48.07120 | 0.81553 | 27457 ft | 404 kts | 167° |
| 2026-05-04 15:00 | 48.04396 | 0.82619 | 27460 ft | 404 kts | 167° |
| 2026-05-04 15:01 | 47.98946 | 0.84753 | 27437 ft | 405 kts | 167° |
| 2026-05-04 15:01 | 47.96219 | 0.85820 | 27441 ft | 405 kts | 167° |
| 2026-05-04 15:01 | 47.93493 | 0.86885 | 27439 ft | 405 kts | 167° |
| 2026-05-04 15:01 | 47.90761 | 0.87951 | 27433 ft | 405 kts | 167° |
| 2026-05-04 15:02 | 47.88039 | 0.89011 | 27438 ft | 405 kts | 167° |
| 2026-05-04 15:02 | 47.85317 | 0.90070 | 27443 ft | 404 kts | 167° |
| 2026-05-04 15:02 | 47.82593 | 0.91129 | 27438 ft | 404 kts | 167° |
| 2026-05-04 15:02 | 47.79869 | 0.92185 | 27443 ft | 404 kts | 167° |
| 2026-05-04 15:03 | 47.77157 | 0.93234 | 27444 ft | 404 kts | 167° |
| 2026-05-04 15:03 | 47.74438 | 0.94285 | 27449 ft | 403 kts | 167° |
| 2026-05-04 15:03 | 47.71761 | 0.95318 | 27440 ft | 403 kts | 167° |
| 2026-05-04 15:03 | 47.69053 | 0.96363 | 27443 ft | 402 kts | 167° |
| 2026-05-04 15:04 | 47.66345 | 0.97406 | 27446 ft | 402 kts | 167° |
| 2026-05-04 15:04 | 47.63625 | 0.98453 | 27501 ft | 407 kts | 167° |
| 2026-05-04 15:04 | 47.60876 | 0.99510 | 27876 ft | 409 kts | 167° |
| 2026-05-04 15:04 | 47.58134 | 1.00564 | 28487 ft | 405 kts | 167° |
| 2026-05-04 15:05 | 47.55419 | 1.01608 | 29134 ft | 401 kts | 168° |
| 2026-05-04 15:05 | 47.52738 | 1.02637 | 29773 ft | 396 kts | 168° |
| 2026-05-04 15:05 | 47.50085 | 1.03654 | 30364 ft | 392 kts | 168° |
| 2026-05-04 15:05 | 47.47453 | 1.04661 | 30854 ft | 391 kts | 168° |
| 2026-05-04 15:06 | 47.44821 | 1.05662 | 31280 ft | 390 kts | 169° |
| 2026-05-04 15:06 | 47.42161 | 1.06344 | 31698 ft | 387 kts | 176° |
| 2026-05-04 15:06 | 47.39479 | 1.06416 | 32173 ft | 384 kts | 182° |
| 2026-05-04 15:07 | 47.34160 | 1.06240 | 33019 ft | 381 kts | 182° |
| 2026-05-04 15:07 | 47.31512 | 1.06162 | 33423 ft | 380 kts | 182° |
| 2026-05-04 15:07 | 47.28869 | 1.06092 | 33770 ft | 380 kts | 182° |
| 2026-05-04 15:07 | 47.26228 | 1.06028 | 34158 ft | 379 kts | 182° |
| 2026-05-04 15:08 | 47.23598 | 1.05967 | 34559 ft | 377 kts | 182° |
| 2026-05-04 15:08 | 47.20969 | 1.05905 | 34835 ft | 379 kts | 182° |
| 2026-05-04 15:08 | 47.18312 | 1.05847 | 34945 ft | 385 kts | 182° |
| 2026-05-04 15:09 | 47.13794 | 1.05747 | 35034 ft | 396 kts | 182° |
| 2026-05-04 15:09 | 47.08223 | 1.05623 | 35323 ft | 404 kts | 182° |
| 2026-05-04 15:10 | 47.02608 | 1.05502 | 35952 ft | 402 kts | 182° |
| 2026-05-04 15:10 | 46.99805 | 1.05412 | 36159 ft | 404 kts | 183° |
| 2026-05-04 15:10 | 46.94163 | 1.05156 | 36540 ft | 407 kts | 184° |
| 2026-05-04 15:11 | 46.91329 | 1.05023 | 36790 ft | 407 kts | 184° |
| 2026-05-04 15:11 | 46.88494 | 1.04893 | 36931 ft | 410 kts | 184° |
| 2026-05-04 15:11 | 46.85633 | 1.04764 | 36933 ft | 411 kts | 184° |
| 2026-05-04 15:12 | 46.79962 | 1.04519 | 36925 ft | 402 kts | 184° |
| 2026-05-04 15:12 | 46.74422 | 1.04281 | 36937 ft | 397 kts | 184° |
| 2026-05-04 15:13 | 46.68935 | 1.04045 | 36915 ft | 397 kts | 184° |
| 2026-05-04 15:13 | 46.63422 | 1.03808 | 36929 ft | 396 kts | 184° |
| 2026-05-04 15:14 | 46.57907 | 1.03570 | 36933 ft | 396 kts | 184° |
| 2026-05-04 15:14 | 46.52401 | 1.03398 | 36916 ft | 397 kts | 180° |
| 2026-05-04 15:15 | 46.46929 | 1.04762 | 36939 ft | 401 kts | 170° |
| 2026-05-04 15:15 | 46.41496 | 1.06635 | 36930 ft | 402 kts | 170° |
| 2026-05-04 15:16 | 46.33318 | 1.09406 | 36929 ft | 403 kts | 171° |
| 2026-05-04 15:17 | 46.25122 | 1.12139 | 36932 ft | 404 kts | 171° |
| 2026-05-04 15:17 | 46.16895 | 1.14868 | 36922 ft | 404 kts | 171° |
| 2026-05-04 15:18 | 46.11412 | 1.16683 | 36911 ft | 405 kts | 171° |
| 2026-05-04 15:19 | 46.03177 | 1.19401 | 36914 ft | 405 kts | 171° |
| 2026-05-04 15:19 | 45.94947 | 1.22109 | 36921 ft | 404 kts | 171° |
| 2026-05-04 15:20 | 45.89476 | 1.23904 | 36912 ft | 403 kts | 171° |
| 2026-05-04 15:20 | 45.84010 | 1.25696 | 36909 ft | 402 kts | 171° |
| 2026-05-04 15:21 | 45.78563 | 1.27478 | 36922 ft | 401 kts | 172° |
| 2026-05-04 15:22 | 45.70410 | 1.30136 | 36916 ft | 400 kts | 172° |
| 2026-05-04 15:22 | 45.62276 | 1.32781 | 36919 ft | 399 kts | 172° |
| 2026-05-04 15:23 | 45.56855 | 1.34540 | 36918 ft | 399 kts | 172° |
| 2026-05-04 15:23 | 45.51431 | 1.36297 | 36911 ft | 400 kts | 172° |
| 2026-05-04 15:24 | 45.40588 | 1.39796 | 36908 ft | 399 kts | 172° |
| 2026-05-04 15:25 | 45.35169 | 1.41540 | 36925 ft | 399 kts | 172° |
| 2026-05-04 15:26 | 45.27070 | 1.44141 | 36923 ft | 400 kts | 172° |
| 2026-05-04 15:26 | 45.18925 | 1.46748 | 36922 ft | 400 kts | 172° |
| 2026-05-04 15:27 | 45.10786 | 1.49348 | 36921 ft | 400 kts | 172° |
| 2026-05-04 15:28 | 45.02644 | 1.51940 | 36910 ft | 400 kts | 172° |
| 2026-05-04 15:29 | 44.94496 | 1.54528 | 36920 ft | 400 kts | 173° |
| 2026-05-04 15:30 | 44.75479 | 1.60537 | 36909 ft | 400 kts | 173° |
| 2026-05-04 15:31 | 44.67326 | 1.63099 | 36933 ft | 400 kts | 173° |
| 2026-05-04 15:32 | 44.53818 | 1.67331 | 36935 ft | 398 kts | 173° |
| 2026-05-04 15:34 | 44.40323 | 1.71539 | 36932 ft | 397 kts | 174° |
| 2026-05-04 15:34 | 44.32252 | 1.74046 | 36934 ft | 396 kts | 174° |
| 2026-05-04 15:35 | 44.26852 | 1.75582 | 36462 ft | 395 kts | 176° |
| 2026-05-04 15:35 | 44.24144 | 1.76180 | 35938 ft | 393 kts | 177° |
| 2026-05-04 15:35 | 44.21439 | 1.76744 | 35387 ft | 393 kts | 177° |
| 2026-05-04 15:36 | 44.16021 | 1.77885 | 34221 ft | 394 kts | 177° |
| 2026-05-04 15:36 | 44.13310 | 1.78472 | 33577 ft | 395 kts | 176° |
| 2026-05-04 15:36 | 44.10596 | 1.79066 | 32963 ft | 394 kts | 176° |
| 2026-05-04 15:37 | 44.07885 | 1.79661 | 32319 ft | 395 kts | 176° |
| 2026-05-04 15:37 | 44.05179 | 1.80257 | 31851 ft | 392 kts | 175° |
| 2026-05-04 15:37 | 44.02497 | 1.80847 | 31368 ft | 388 kts | 175° |
| 2026-05-04 15:37 | 43.99842 | 1.81430 | 30912 ft | 385 kts | 175° |
| 2026-05-04 15:38 | 43.97221 | 1.82126 | 30450 ft | 385 kts | 169° |
| 2026-05-04 15:38 | 43.94685 | 1.83331 | 30024 ft | 385 kts | 162° |
| 2026-05-04 15:38 | 43.92291 | 1.84994 | 29581 ft | 387 kts | 154° |
| 2026-05-04 15:38 | 43.90017 | 1.86975 | 29143 ft | 384 kts | 153° |
| 2026-05-04 15:39 | 43.87767 | 1.88951 | 28679 ft | 381 kts | 153° |
| 2026-05-04 15:39 | 43.85532 | 1.90905 | 28225 ft | 378 kts | 153° |
| 2026-05-04 15:39 | 43.81100 | 1.94746 | 27322 ft | 373 kts | 153° |
| 2026-05-04 15:40 | 43.78903 | 1.96639 | 26876 ft | 371 kts | 153° |
| 2026-05-04 15:40 | 43.76718 | 1.98519 | 26433 ft | 369 kts | 153° |
| 2026-05-04 15:40 | 43.74545 | 2.00386 | 25987 ft | 367 kts | 153° |
| 2026-05-04 15:40 | 43.72385 | 2.02239 | 25556 ft | 365 kts | 153° |
| 2026-05-04 15:41 | 43.70241 | 2.04100 | 25100 ft | 364 kts | 152° |
| 2026-05-04 15:41 | 43.68123 | 2.06000 | 24647 ft | 362 kts | 151° |
| 2026-05-04 15:41 | 43.66019 | 2.07909 | 24203 ft | 361 kts | 151° |
| 2026-05-04 15:41 | 43.63926 | 2.09808 | 23765 ft | 359 kts | 151° |
| 2026-05-04 15:42 | 43.61843 | 2.11692 | 23330 ft | 357 kts | 151° |
| 2026-05-04 15:42 | 43.59768 | 2.13564 | 22894 ft | 355 kts | 151° |
| 2026-05-04 15:42 | 43.57730 | 2.15399 | 22478 ft | 353 kts | 151° |
| 2026-05-04 15:42 | 43.55678 | 2.17243 | 22062 ft | 351 kts | 151° |
| 2026-05-04 15:43 | 43.53638 | 2.19074 | 21641 ft | 349 kts | 151° |
| 2026-05-04 15:43 | 43.51605 | 2.20897 | 21219 ft | 347 kts | 151° |
| 2026-05-04 15:43 | 43.49585 | 2.22706 | 20795 ft | 345 kts | 151° |
| 2026-05-04 15:43 | 43.47580 | 2.24501 | 20387 ft | 343 kts | 151° |
| 2026-05-04 15:44 | 43.45586 | 2.26274 | 19982 ft | 340 kts | 152° |
| 2026-05-04 15:44 | 43.43591 | 2.28023 | 19565 ft | 338 kts | 152° |
| 2026-05-04 15:44 | 43.41610 | 2.29751 | 19153 ft | 337 kts | 152° |
| 2026-05-04 15:44 | 43.39638 | 2.31473 | 18744 ft | 335 kts | 152° |
| 2026-05-04 15:45 | 43.37671 | 2.33190 | 18330 ft | 333 kts | 151° |
| 2026-05-04 15:45 | 43.35729 | 2.34887 | 17943 ft | 331 kts | 152° |
| 2026-05-04 15:45 | 43.33785 | 2.36579 | 17606 ft | 329 kts | 152° |
| 2026-05-04 15:45 | 43.31858 | 2.38243 | 17366 ft | 328 kts | 152° |
| 2026-05-04 15:46 | 43.29914 | 2.39914 | 17079 ft | 330 kts | 152° |
| 2026-05-04 15:46 | 43.27974 | 2.41584 | 16699 ft | 328 kts | 152° |
| 2026-05-04 15:46 | 43.26047 | 2.43242 | 16298 ft | 326 kts | 152° |
| 2026-05-04 15:46 | 43.24127 | 2.44894 | 15886 ft | 325 kts | 152° |
| 2026-05-04 15:47 | 43.22216 | 2.46537 | 15480 ft | 324 kts | 152° |
| 2026-05-04 15:47 | 43.20306 | 2.48177 | 15068 ft | 323 kts | 151° |
| 2026-05-04 15:47 | 43.18511 | 2.50042 | 14584 ft | 329 kts | 137° |
| 2026-05-04 15:47 | 43.17065 | 2.52508 | 14055 ft | 334 kts | 131° |
| 2026-05-04 15:48 | 43.15673 | 2.55052 | 13618 ft | 332 kts | 130° |
| 2026-05-04 15:48 | 43.14298 | 2.57583 | 13224 ft | 331 kts | 130° |
| 2026-05-04 15:48 | 43.11546 | 2.62597 | 12385 ft | 329 kts | 131° |
| 2026-05-04 15:49 | 43.10161 | 2.65092 | 11969 ft | 327 kts | 131° |
| 2026-05-04 15:49 | 43.08786 | 2.67556 | 11579 ft | 325 kts | 131° |
| 2026-05-04 15:49 | 43.07416 | 2.70007 | 11180 ft | 323 kts | 131° |
| 2026-05-04 15:49 | 43.06053 | 2.72442 | 10785 ft | 321 kts | 131° |
| 2026-05-04 15:50 | 43.04699 | 2.74854 | 10445 ft | 318 kts | 130° |
| 2026-05-04 15:50 | 43.03393 | 2.77179 | 10323 ft | 307 kts | 130° |
| 2026-05-04 15:50 | 43.02096 | 2.79488 | 10179 ft | 298 kts | 130° |
| 2026-05-04 15:50 | 43.00852 | 2.81700 | 10048 ft | 289 kts | 130° |
| 2026-05-04 15:51 | 42.99661 | 2.83816 | 9929 ft | 281 kts | 131° |
| 2026-05-04 15:51 | 42.98460 | 2.85942 | 9676 ft | 285 kts | 130° |
| 2026-05-04 15:51 | 42.97251 | 2.88083 | 9393 ft | 284 kts | 130° |
| 2026-05-04 15:51 | 42.96048 | 2.90211 | 9085 ft | 282 kts | 130° |
| 2026-05-04 15:52 | 42.94853 | 2.92328 | 8810 ft | 281 kts | 130° |
| 2026-05-04 15:52 | 42.93663 | 2.94434 | 8519 ft | 280 kts | 130° |
| 2026-05-04 15:52 | 42.92476 | 2.96533 | 8224 ft | 278 kts | 130° |
| 2026-05-04 15:52 | 42.91298 | 2.98613 | 7936 ft | 276 kts | 130° |
| 2026-05-04 15:53 | 42.90129 | 3.00676 | 7652 ft | 274 kts | 130° |
| 2026-05-04 15:53 | 42.88959 | 3.02720 | 7364 ft | 272 kts | 133° |
| 2026-05-04 15:53 | 42.87492 | 3.04242 | 7054 ft | 261 kts | 156° |
| 2026-05-04 15:53 | 42.85811 | 3.05045 | 6778 ft | 251 kts | 165° |
| 2026-05-04 15:54 | 42.84150 | 3.05650 | 6501 ft | 243 kts | 166° |
| 2026-05-04 15:54 | 42.82538 | 3.06216 | 6238 ft | 235 kts | 165° |
| 2026-05-04 15:54 | 42.80977 | 3.06770 | 5983 ft | 228 kts | 165° |
| 2026-05-04 15:54 | 42.79457 | 3.07319 | 5741 ft | 225 kts | 165° |
| 2026-05-04 15:55 | 42.77947 | 3.07871 | 5570 ft | 223 kts | 165° |
| 2026-05-04 15:55 | 42.76451 | 3.08422 | 5337 ft | 222 kts | 165° |
| 2026-05-04 15:55 | 42.74985 | 3.08965 | 5247 ft | 216 kts | 165° |
| 2026-05-04 15:55 | 42.73546 | 3.09498 | 5141 ft | 213 kts | 164° |
| 2026-05-04 15:56 | 42.72132 | 3.10022 | 5048 ft | 214 kts | 164° |
| 2026-05-04 15:56 | 42.70664 | 3.10446 | 4937 ft | 214 kts | 179° |
| 2026-05-04 15:56 | 42.69228 | 3.09852 | 4738 ft | 221 kts | 206° |
| 2026-05-04 15:56 | 42.67917 | 3.08773 | 4565 ft | 224 kts | 210° |
| 2026-05-04 15:57 | 42.66619 | 3.07646 | 4411 ft | 221 kts | 210° |
| 2026-05-04 15:57 | 42.65320 | 3.06526 | 4180 ft | 220 kts | 210° |
| 2026-05-04 15:57 | 42.64026 | 3.05421 | 3945 ft | 219 kts | 210° |
| 2026-05-04 15:57 | 42.62741 | 3.04324 | 3725 ft | 216 kts | 209° |
| 2026-05-04 15:58 | 42.61487 | 3.03260 | 3509 ft | 209 kts | 209° |
| 2026-05-04 15:58 | 42.60399 | 3.02004 | 3266 ft | 206 kts | 233° |
| 2026-05-04 15:58 | 42.60119 | 3.00157 | 3039 ft | 205 kts | 281° |
| 2026-05-04 15:58 | 42.60904 | 2.98596 | 2870 ft | 207 kts | 325° |
| 2026-05-04 15:59 | 42.61707 | 2.97907 | 2768 ft | 206 kts | 326° |
| 2026-05-04 15:59 | 42.62814 | 2.96743 | 2610 ft | 197 kts | 323° |
| 2026-05-04 15:59 | 42.63968 | 2.95755 | 2355 ft | 194 kts | 331° |
| 2026-05-04 15:59 | 42.65124 | 2.94822 | 2101 ft | 192 kts | 330° |
| 2026-05-04 16:00 | 42.66257 | 2.93875 | 1846 ft | 190 kts | 330° |
| 2026-05-04 16:00 | 42.67376 | 2.92932 | 1603 ft | 188 kts | 330° |
| 2026-05-04 16:00 | 42.68482 | 2.92000 | 1352 ft | 187 kts | 331° |
| 2026-05-04 16:00 | 42.69565 | 2.91087 | 1114 ft | 178 kts | 331° |
| 2026-05-04 16:01 | 42.70572 | 2.90240 | 884 ft | 163 kts | 331° |
| 2026-05-04 16:01 | 42.71497 | 2.89458 | 660 ft | 150 kts | 331° |
| 2026-05-04 16:01 | 42.72367 | 2.88728 | 451 ft | 146 kts | 330° |
| 2026-05-04 16:01 | 42.73247 | 2.87993 | 255 ft | 150 kts | 331° |
| 2026-05-04 16:02 | 42.74119 | 2.87249 | 152 ft | 140 kts | 329° |
| 2026-05-04 16:02 | 42.74784 | 2.86695 | 150 ft | 81 kts | 328° |
| 2026-05-04 16:02 | 42.75193 | 2.86307 | 152 ft | 15 kts | 277° |
| 2026-05-04 16:03 | 42.75139 | 2.86201 | 150 ft | 15 kts | 202° |
| 2026-05-04 16:03 | 42.75048 | 2.86236 | 150 ft | 14 kts | 148° |
| 2026-05-04 16:03 | 42.74967 | 2.86305 | 149 ft | 13 kts | 148° |
| 2026-05-04 16:03 | 42.74884 | 2.86352 | 149 ft | 13 kts | 154° |
| 2026-05-04 16:04 | 42.74804 | 2.86417 | 149 ft | 15 kts | 148° |
| 2026-05-04 16:04 | 42.74594 | 2.86595 | 149 ft | 21 kts | 148° |
| 2026-05-04 16:04 | 42.74465 | 2.86705 | 149 ft | 23 kts | 148° |
| 2026-05-04 16:05 | 42.74322 | 2.86826 | 149 ft | 24 kts | 149° |
| 2026-05-04 16:05 | 42.74190 | 2.86955 | 149 ft | 23 kts | 141° |
| 2026-05-04 16:05 | 42.73993 | 2.87073 | 149 ft | 10 kts | 226° |
| 2026-05-04 16:06 | 42.73965 | 2.86994 | 149 ft | 9 kts | 262° |
| 2026-05-04 16:06 | 42.74013 | 2.86865 | 149 ft | 0 kts | 349° |